createdAt,value
2023-03-21T00:02:05.679Z,13.70
2023-03-21T00:04:52.516Z,12.70
2023-03-21T00:07:39.015Z,12.23
2023-03-21T00:10:37.190Z,12.60
2023-03-21T00:13:23.944Z,12.73
2023-03-21T00:16:24.384Z,12.90
2023-03-21T00:19:10.916Z,13.30
2023-03-21T00:22:06.944Z,13.40
2023-03-21T00:24:53.343Z,13.47
2023-03-21T00:27:53.290Z,14.70
2023-03-21T00:30:41.664Z,15.83
2023-03-21T00:33:25.658Z,14.27
2023-03-21T00:36:12.449Z,14.67
2023-03-21T00:38:57.283Z,14.27
2023-03-21T00:41:43.569Z,16.40
2023-03-21T00:44:27.760Z,13.30
2023-03-21T00:47:13.509Z,11.13
2023-03-21T00:49:57.556Z,11.93
2023-03-21T00:52:41.975Z,12.97
2023-03-21T00:55:26.295Z,11.83
2023-03-21T00:58:12.941Z,12.40
2023-03-21T01:00:57.714Z,11.63
2023-03-21T01:03:50.955Z,12.00
2023-03-21T01:06:40.336Z,12.07
2023-03-21T01:09:26.140Z,12.17
2023-03-21T01:12:10.758Z,13.20
2023-03-21T01:14:56.693Z,12.87
2023-03-21T01:17:40.650Z,13.77
2023-03-21T01:20:24.885Z,12.43
2023-03-21T01:23:09.019Z,11.93
2023-03-21T01:25:55.101Z,13.23
2023-03-21T01:28:40.920Z,11.83
2023-03-21T01:31:26.415Z,12.00
2023-03-21T01:34:10.550Z,11.37
2023-03-21T01:36:54.586Z,10.67
2023-03-21T01:39:38.722Z,12.47
2023-03-21T01:42:22.719Z,11.90
2023-03-21T01:45:46.402Z,10.53
2023-03-21T01:48:34.216Z,12.20
2023-03-21T01:51:19.439Z,12.50
2023-03-21T01:54:17.554Z,11.10
2023-03-21T01:57:05.289Z,12.70
2023-03-21T01:59:51.578Z,11.43
2023-03-21T02:03:06.102Z,12.07
2023-03-21T02:06:10.372Z,10.57
2023-03-21T02:09:01.799Z,11.97
2023-03-21T02:11:47.681Z,12.23
2023-03-21T02:14:35.950Z,12.07
2023-03-21T02:17:35.335Z,11.77
2023-03-21T02:20:54.563Z,13.43
2023-03-21T02:24:26.628Z,12.83
2023-03-21T02:27:15.874Z,12.47
2023-03-21T02:30:52.167Z,11.60
2023-03-21T02:34:22.916Z,11.27
2023-03-21T02:37:18.117Z,13.13
2023-03-21T02:40:12.047Z,11.73
2023-03-21T02:43:04.302Z,12.40
2023-03-21T02:45:56.033Z,12.50
2023-03-21T02:48:50.821Z,12.87
2023-03-21T02:51:38.032Z,13.67
2023-03-21T02:54:38.671Z,13.07
2023-03-21T02:57:40.113Z,13.13
2023-03-21T03:00:29.834Z,12.77
2023-03-21T03:03:24.972Z,12.37
2023-03-21T03:06:20.888Z,13.70
2023-03-21T03:09:30.598Z,13.70
2023-03-21T03:12:23.827Z,12.77
2023-03-21T03:15:17.919Z,10.97
2023-03-21T03:18:12.726Z,11.43
2023-03-21T03:21:05.622Z,12.53
2023-03-21T03:23:54.296Z,12.33
2023-03-21T03:26:42.639Z,12.50
2023-03-21T03:29:29.748Z,12.80
2023-03-21T03:32:18.350Z,12.87
2023-03-21T03:35:04.549Z,13.37
2023-03-21T03:37:52.271Z,12.10
2023-03-21T03:40:42.183Z,12.47
2023-03-21T03:43:44.942Z,12.13
2023-03-21T03:46:32.019Z,12.20
2023-03-21T03:49:20.883Z,12.63
2023-03-21T03:52:10.948Z,12.87
2023-03-21T03:55:00.072Z,12.73
2023-03-21T03:57:50.849Z,13.37
2023-03-21T04:00:36.954Z,13.17
2023-03-21T04:03:22.143Z,13.13
2023-03-21T04:06:07.529Z,12.87
2023-03-21T04:08:51.618Z,13.93
2023-03-21T04:11:35.965Z,12.53
2023-03-21T04:14:19.968Z,14.50
2023-03-21T04:17:06.097Z,19.87
2023-03-21T04:19:55.552Z,17.47
2023-03-21T04:22:42.258Z,16.57
2023-03-21T04:25:33.769Z,15.07
2023-03-21T04:28:22.310Z,15.00
2023-03-21T04:31:25.611Z,14.87
2023-03-21T04:34:24.172Z,13.30
2023-03-21T04:37:13.682Z,12.77
2023-03-21T04:39:58.587Z,13.33
2023-03-21T04:42:42.821Z,13.57
2023-03-21T04:45:26.957Z,13.37
2023-03-21T04:48:11.346Z,18.90
2023-03-21T04:50:56.888Z,16.30
2023-03-21T04:53:44.864Z,14.93
2023-03-21T04:56:32.634Z,14.03
2023-03-21T04:59:18.122Z,14.97
2023-03-21T05:02:02.380Z,14.93
2023-03-21T05:04:48.019Z,15.83
2023-03-21T05:07:33.496Z,15.40
2023-03-21T05:10:18.024Z,14.43
2023-03-21T05:13:02.462Z,13.83
2023-03-21T05:15:46.549Z,13.90
2023-03-21T05:18:35.042Z,15.57
2023-03-21T05:21:29.620Z,16.17
2023-03-21T05:24:19.444Z,17.37
2023-03-21T05:27:03.772Z,16.30
2023-03-21T05:29:55.552Z,16.97
2023-03-21T05:32:39.870Z,17.60
2023-03-21T05:35:27.670Z,17.63
2023-03-21T05:38:14.339Z,17.93
2023-03-21T05:41:08.918Z,18.60
2023-03-21T05:43:53.181Z,19.93
2023-03-21T05:46:37.253Z,17.13
2023-03-21T05:49:22.885Z,19.47
2023-03-21T05:52:11.358Z,18.83
2023-03-21T05:54:55.405Z,21.33
2023-03-21T05:57:42.640Z,27.23
2023-03-21T06:00:41.044Z,22.73
2023-03-21T06:03:36.362Z,18.50
2023-03-21T06:06:33.440Z,19.90
2023-03-21T06:09:18.318Z,18.70
2023-03-21T06:12:09.916Z,18.67
2023-03-21T06:15:05.565Z,19.83
2023-03-21T06:17:56.823Z,19.10
2023-03-21T06:20:41.020Z,19.10
2023-03-21T06:23:28.356Z,20.23
2023-03-21T06:26:12.747Z,20.33
2023-03-21T06:28:56.994Z,21.97
2023-03-21T06:31:42.692Z,27.10
2023-03-21T06:34:26.912Z,20.60
2023-03-21T06:37:11.225Z,30.83
2023-03-21T06:39:55.707Z,24.60
2023-03-21T06:42:40.717Z,23.40
2023-03-21T06:45:27.968Z,26.90
2023-03-21T06:48:13.831Z,22.73
2023-03-21T06:51:08.961Z,32.77
2023-03-21T06:53:57.577Z,24.70
2023-03-21T06:57:02.815Z,21.67
2023-03-21T06:59:50.580Z,21.80
2023-03-21T07:02:40.178Z,24.13
2023-03-21T07:05:30.512Z,26.47
2023-03-21T07:08:14.386Z,28.33
2023-03-21T07:10:58.984Z,26.27
2023-03-21T07:13:43.513Z,26.23
2023-03-21T07:16:27.616Z,27.03
2023-03-21T07:19:11.587Z,27.03
2023-03-21T07:21:57.087Z,31.37
2023-03-21T07:24:41.134Z,28.63
2023-03-21T07:27:25.451Z,30.37
2023-03-21T07:30:11.334Z,28.43
2023-03-21T07:32:55.489Z,28.17
2023-03-21T07:35:40.270Z,32.90
2023-03-21T07:38:26.702Z,35.43
2023-03-21T07:41:11.552Z,35.47
2023-03-21T07:43:55.736Z,29.63
2023-03-21T07:46:42.165Z,28.03
2023-03-21T07:49:26.837Z,25.90
2023-03-21T07:52:10.952Z,30.23
2023-03-21T07:54:56.492Z,30.40
2023-03-21T07:57:40.775Z,26.10
2023-03-21T08:00:25.492Z,22.30
2023-03-21T08:03:09.819Z,24.07
2023-03-21T08:05:53.927Z,23.10
2023-03-21T08:08:37.950Z,23.90
2023-03-21T08:11:23.802Z,24.30
2023-03-21T08:14:07.817Z,22.50
2023-03-21T08:16:51.781Z,21.90
2023-03-21T08:19:35.828Z,22.73
2023-03-21T08:22:19.784Z,24.57
2023-03-21T08:25:05.389Z,24.60
2023-03-21T08:27:52.660Z,24.80
2023-03-21T08:30:37.322Z,24.97
2023-03-21T08:33:21.821Z,24.40
2023-03-21T08:36:08.066Z,25.67
2023-03-21T08:38:56.998Z,25.73
2023-03-21T08:41:41.057Z,23.97
2023-03-21T08:44:27.052Z,24.43
2023-03-21T08:47:10.968Z,26.13
2023-03-21T08:49:56.026Z,28.53
2023-03-21T08:52:41.220Z,26.03
2023-03-21T08:55:25.421Z,42.30
2023-03-21T08:58:10.279Z,34.07
2023-03-21T09:00:55.867Z,33.73
2023-03-21T09:03:40.455Z,31.10
2023-03-21T09:06:24.908Z,36.07
2023-03-21T09:09:09.591Z,30.20
2023-03-21T09:11:53.640Z,29.87
2023-03-21T09:14:37.993Z,30.93
2023-03-21T09:17:23.442Z,31.90
2023-03-21T09:20:11.485Z,29.77
2023-03-21T09:22:55.433Z,28.93
2023-03-21T09:25:40.310Z,33.43
2023-03-21T09:28:25.215Z,25.80
2023-03-21T09:31:11.452Z,26.90
2023-03-21T09:33:58.166Z,26.43
2023-03-21T09:36:42.304Z,25.47
2023-03-21T09:39:27.469Z,25.07
2023-03-21T09:42:31.141Z,26.90
2023-03-21T09:45:20.328Z,27.27
2023-03-21T09:48:07.820Z,29.37
2023-03-21T09:50:53.974Z,30.20
2023-03-21T09:53:41.282Z,28.40
2023-03-21T09:56:26.231Z,26.07
2023-03-21T09:59:19.673Z,26.23
2023-03-21T10:02:04.532Z,24.63
2023-03-21T10:04:49.557Z,25.13
2023-03-21T10:07:40.600Z,22.73
2023-03-21T10:10:28.615Z,24.50
2023-03-21T10:13:17.353Z,25.50
2023-03-21T10:16:11.653Z,24.50
2023-03-21T10:18:57.258Z,26.63
2023-03-21T10:21:59.711Z,26.10
2023-03-21T10:24:46.076Z,27.30
2023-03-21T10:27:29.943Z,29.53
2023-03-21T10:30:26.543Z,27.07
2023-03-21T11:33:59.969Z,30.53
2023-03-21T11:36:51.556Z,37.43
2023-03-21T11:39:41.317Z,30.77
2023-03-21T11:42:30.487Z,28.17
2023-03-21T11:45:16.486Z,32.47
2023-03-21T11:48:02.407Z,26.87
2023-03-21T11:50:50.076Z,24.87
2023-03-21T11:53:41.866Z,29.43
2023-03-21T11:56:29.564Z,26.70
2023-03-21T11:59:30.223Z,25.83
2023-03-21T12:02:38.099Z,26.17
2023-03-21T12:05:29.922Z,25.60
2023-03-21T12:08:25.148Z,26.27
2023-03-21T12:11:18.758Z,29.90
2023-03-21T12:14:12.169Z,29.77
2023-03-21T12:17:07.363Z,29.00
2023-03-21T12:20:17.983Z,24.47
2023-03-21T12:23:17.330Z,30.20
2023-03-21T12:26:11.800Z,25.57
2023-03-21T12:29:21.028Z,25.37
2023-03-21T12:32:30.717Z,24.67
2023-03-21T12:35:32.389Z,24.97
2023-03-21T12:38:19.419Z,26.97
2023-03-21T12:41:20.962Z,25.73
2023-03-21T12:44:10.114Z,32.10
2023-03-21T12:46:59.628Z,31.37
2023-03-21T12:49:49.957Z,41.80
2023-03-21T12:52:40.004Z,36.67
2023-03-21T12:55:26.655Z,25.17
2023-03-21T12:58:18.714Z,26.37
2023-03-21T13:01:06.839Z,27.17
2023-03-21T13:03:58.655Z,23.97
2023-03-21T13:06:44.481Z,24.40
2023-03-21T13:09:37.768Z,23.97
2023-03-21T13:12:43.232Z,23.07
2023-03-21T13:15:48.387Z,21.87
2023-03-21T13:18:50.267Z,23.90
2023-03-21T13:21:50.645Z,21.70
2023-03-21T13:24:40.072Z,22.63
2023-03-21T13:27:30.246Z,22.83
2023-03-21T13:30:21.986Z,25.50
2023-03-21T13:33:08.497Z,25.37
2023-03-21T13:36:05.503Z,24.37
2023-03-21T13:38:52.922Z,24.77
2023-03-21T13:41:39.029Z,25.77
2023-03-21T13:44:27.044Z,28.73
2023-03-21T13:47:30.884Z,29.37
2023-03-21T13:50:36.590Z,28.27
2023-03-21T13:53:24.839Z,26.50
2023-03-21T13:56:25.431Z,22.20
2023-03-21T13:59:12.348Z,23.07
2023-03-21T14:02:02.050Z,25.07
2023-03-21T14:05:04.216Z,25.77
2023-03-21T14:07:54.771Z,24.40
2023-03-21T14:10:44.855Z,24.43
2023-03-21T14:13:29.788Z,25.73
2023-03-21T14:16:18.015Z,24.00
2023-03-21T14:19:05.191Z,31.10
2023-03-21T14:21:53.589Z,31.40
2023-03-21T14:24:37.560Z,26.57
2023-03-21T14:27:23.861Z,28.43
2023-03-21T14:30:13.077Z,30.47
2023-03-21T14:32:59.905Z,30.30
2023-03-21T14:35:44.096Z,31.17
2023-03-21T14:38:33.483Z,32.53
2023-03-21T14:41:24.459Z,29.07
2023-03-21T14:44:19.186Z,29.43
2023-03-21T14:47:06.658Z,28.27
2023-03-21T14:49:51.521Z,31.47
2023-03-21T14:52:37.206Z,31.23
2023-03-21T14:55:21.901Z,33.23
2023-03-21T14:58:06.743Z,32.60
2023-03-21T15:00:55.822Z,26.40
2023-03-21T15:03:39.769Z,32.77
2023-03-21T15:06:23.786Z,29.03
2023-03-21T15:09:10.127Z,30.80
2023-03-21T15:11:57.418Z,35.73
2023-03-21T15:14:41.805Z,41.27
2023-03-21T15:17:28.407Z,41.67
2023-03-21T15:20:16.578Z,36.03
2023-03-21T15:23:04.826Z,32.10
2023-03-21T15:25:48.712Z,50.23
2023-03-21T15:28:34.631Z,38.13
2023-03-21T15:31:21.013Z,39.77
2023-03-21T15:34:07.127Z,55.80
2023-03-21T15:36:56.282Z,40.87
2023-03-21T15:39:40.272Z,41.50
2023-03-21T15:42:33.365Z,47.43
2023-03-21T15:45:23.626Z,46.13
2023-03-21T15:48:10.545Z,43.37
2023-03-21T15:51:02.845Z,73.43
2023-03-21T15:53:46.994Z,41.33
2023-03-21T15:56:37.370Z,39.20
2023-03-21T15:59:22.544Z,41.77
2023-03-21T16:02:07.430Z,46.73
2023-03-21T16:05:02.639Z,41.60
2023-03-21T16:07:48.858Z,55.60
2023-03-21T16:10:37.010Z,54.00
2023-03-21T16:13:21.148Z,51.47
2023-03-21T16:16:05.124Z,50.17
2023-03-21T16:18:49.750Z,59.03
2023-03-21T16:21:34.301Z,48.43
2023-03-21T16:24:19.653Z,51.70
2023-03-21T16:27:03.589Z,63.83
2023-03-21T16:29:47.749Z,54.87
2023-03-21T16:32:31.722Z,52.00
2023-03-21T16:35:16.340Z,63.83
2023-03-21T16:38:00.460Z,63.17
2023-03-21T16:40:46.017Z,61.63
2023-03-21T16:43:29.938Z,82.50
2023-03-21T16:46:15.382Z,68.67
2023-03-21T16:48:59.933Z,54.47
2023-03-21T16:51:44.047Z,74.23
2023-03-21T16:54:28.238Z,53.23
2023-03-21T16:57:27.731Z,51.93
2023-03-21T17:00:16.980Z,49.30
2023-03-21T17:03:03.344Z,49.70
2023-03-21T17:05:47.658Z,47.93
2023-03-21T17:08:31.696Z,49.47
2023-03-21T17:11:20.260Z,52.97
2023-03-21T17:14:05.838Z,52.73
2023-03-21T17:16:50.091Z,59.03
2023-03-21T17:19:34.143Z,57.47
2023-03-21T17:22:18.079Z,53.77
2023-03-21T17:25:03.351Z,58.07
2023-03-21T17:27:48.390Z,59.30
2023-03-21T17:30:35.913Z,54.90
2023-03-21T17:33:20.119Z,58.10
2023-03-21T17:36:05.817Z,53.07
2023-03-21T17:38:50.007Z,58.03
2023-03-21T17:41:34.737Z,51.40
2023-03-21T17:44:18.999Z,46.37
2023-03-21T17:47:04.562Z,45.83
2023-03-21T17:49:48.457Z,44.83
2023-03-21T17:52:32.525Z,48.97
2023-03-21T17:55:18.004Z,42.90
2023-03-21T17:58:02.349Z,55.57
2023-03-21T18:00:47.052Z,67.70
2023-03-21T18:03:32.923Z,46.90
2023-03-21T18:06:18.486Z,43.47
2023-03-21T18:09:07.939Z,45.37
2023-03-21T18:11:52.007Z,43.13
2023-03-21T18:14:40.436Z,36.97
2023-03-21T18:17:24.924Z,33.80
2023-03-21T18:20:14.977Z,35.77
2023-03-21T18:22:58.906Z,34.30
2023-03-21T18:25:43.070Z,33.77
2023-03-21T18:28:27.248Z,35.17
2023-03-21T18:31:19.758Z,32.00
2023-03-21T18:34:04.168Z,31.87
2023-03-21T18:36:49.778Z,31.43
2023-03-21T18:39:33.873Z,31.30
2023-03-21T18:42:20.447Z,30.30
2023-03-21T18:45:10.106Z,32.33
2023-03-21T18:47:54.121Z,30.77
2023-03-21T18:50:38.471Z,30.07
2023-03-21T18:53:24.132Z,28.70
2023-03-21T18:56:10.564Z,28.97
2023-03-21T18:58:54.793Z,29.77
2023-03-21T19:01:39.280Z,27.03
2023-03-21T19:04:29.891Z,27.20
2023-03-21T19:07:14.702Z,28.57
2023-03-21T19:10:16.434Z,28.87
2023-03-21T19:13:02.375Z,26.03
2023-03-21T19:15:49.393Z,24.50
2023-03-21T19:18:52.161Z,21.50
2023-03-21T19:21:37.895Z,22.13
2023-03-21T19:24:28.348Z,25.80
2023-03-21T19:27:14.846Z,22.57
2023-03-21T19:30:13.581Z,20.87
2023-03-21T19:32:58.250Z,21.80
2023-03-21T19:35:43.123Z,20.87
2023-03-21T19:38:27.738Z,23.03
2023-03-21T19:41:11.844Z,24.10
2023-03-21T19:43:57.761Z,22.57
2023-03-21T19:46:42.124Z,20.13
2023-03-21T19:49:37.473Z,19.43
2023-03-21T19:52:32.123Z,20.27
2023-03-21T19:55:16.252Z,18.90
2023-03-21T19:58:00.527Z,20.10
2023-03-21T20:00:46.399Z,17.70
2023-03-21T20:03:30.892Z,16.77
2023-03-21T20:06:15.386Z,18.13
2023-03-21T20:12:05.789Z,18.90
2023-03-21T20:14:56.007Z,17.37
2023-03-21T20:17:50.726Z,18.40
2023-03-21T20:20:34.989Z,18.37
2023-03-21T20:23:19.681Z,18.77
2023-03-21T20:26:09.433Z,18.00
2023-03-21T20:29:27.878Z,19.03
2023-03-21T20:32:01.181Z,19.60
2023-03-21T20:34:46.783Z,18.90
2023-03-21T20:37:30.975Z,18.07
2023-03-21T20:40:17.555Z,17.37
2023-03-21T20:43:28.451Z,17.47
2023-03-21T20:46:10.247Z,19.13
2023-03-21T20:48:54.873Z,21.33
2023-03-21T20:54:45.792Z,22.23
2023-03-21T20:57:30.310Z,18.00
2023-03-21T21:00:17.287Z,18.00
2023-03-21T21:03:01.372Z,17.87
2023-03-21T21:05:46.744Z,15.97
2023-03-21T21:08:32.333Z,17.53
2023-03-21T21:12:04.727Z,17.77
2023-03-21T21:14:22.581Z,18.93
2023-03-21T21:17:24.588Z,18.23
2023-03-21T21:20:16.940Z,19.17
2023-03-21T21:23:01.164Z,19.67
2023-03-21T21:25:46.776Z,17.37
2023-03-21T21:28:32.329Z,18.63
2023-03-21T21:31:18.497Z,18.47
2023-03-21T21:34:03.351Z,19.70
2023-03-21T21:36:47.546Z,20.50
2023-03-21T21:39:36.571Z,19.63
2023-03-21T21:42:21.885Z,20.57
2023-03-21T21:45:07.194Z,20.67
2023-03-21T21:47:51.226Z,21.03
2023-03-21T21:50:36.314Z,21.03
2023-03-21T21:53:20.422Z,20.93
2023-03-21T21:56:04.491Z,21.87
2023-03-21T21:58:52.343Z,21.53
2023-03-21T22:01:38.720Z,20.33
2023-03-21T22:04:28.650Z,19.90
2023-03-21T22:07:14.892Z,19.93
2023-03-21T22:09:58.917Z,20.57
2023-03-21T22:12:43.043Z,21.23
2023-03-21T22:15:28.949Z,19.83
2023-03-21T22:18:12.968Z,20.93
2023-03-21T22:20:57.172Z,21.03
2023-03-21T22:23:43.123Z,20.17
2023-03-21T22:26:27.378Z,19.07
2023-03-21T22:29:11.377Z,18.00
2023-03-21T22:31:57.431Z,18.40
2023-03-21T22:34:41.720Z,19.27
2023-03-21T22:37:26.149Z,19.13
2023-03-21T22:40:13.245Z,17.93
2023-03-21T22:42:57.329Z,19.43
2023-03-21T22:45:42.463Z,19.83
2023-03-21T22:48:30.380Z,17.40
2023-03-21T22:51:14.408Z,18.37
2023-03-21T22:53:58.551Z,17.67
2023-03-21T22:56:42.517Z,17.37
2023-03-21T22:59:26.721Z,16.83
2023-03-21T23:02:11.033Z,16.97
2023-03-21T23:04:56.577Z,18.80
2023-03-21T23:07:40.978Z,18.93
2023-03-21T23:10:25.184Z,18.83
2023-03-21T23:13:09.384Z,18.83
2023-03-21T23:15:53.736Z,20.13
2023-03-21T23:18:38.773Z,20.03
2023-03-21T23:21:25.608Z,21.97
2023-03-21T23:24:10.807Z,21.20
2023-03-21T23:26:54.730Z,22.33
2023-03-21T23:29:38.662Z,17.63
2023-03-21T23:32:22.691Z,19.07
2023-03-21T23:35:07.848Z,17.87
2023-03-21T23:37:53.416Z,16.20
2023-03-21T23:40:40.705Z,16.77
2023-03-21T23:43:25.140Z,16.30
2023-03-21T23:46:09.751Z,17.03
2023-03-21T23:48:53.777Z,17.40
2023-03-21T23:51:39.000Z,17.13
2023-03-21T23:54:24.482Z,17.10
2023-03-21T23:57:08.425Z,16.03
2023-03-21T23:59:55.543Z,15.30
